Marshall, Minnesota
Current Conditions -  °F | °C
As of 9:15 AM on Wednesday 26 Nov 2014 (Local Time) from KMML Reporting Station
Overcast Overcast  
Wind Chill: -14°   Ceiling: 900
Heat Index: -6°   Visibility: 1.7mi
Dew Point: -9°   Wind: 20mph
Humidity: 80%   Direction: 350°N
Pressure: 30.16"   Gusts: NA
Location:  44.45°N, 95.79°W
Report Text: KMML 261515Z AUTO 35017KT 1 3/4SM OVC009 M06/M09 A3016 RMK AO1
Loading
Personal Weather Stations






























Interactive Weather Map New forecast layout! Learn more

10-Day Weather Forecast

Advertisements
Track Severe Weather on mobile